sensor_id;sensor_type;location;lat;lon;timestamp;temperature;humidity
29321;DHT22;16323;51.130;6.612;2023-04-19T00:01:01;18.20;66.00
29321;DHT22;16323;51.130;6.612;2023-04-19T00:03:28;18.20;65.90
29321;DHT22;16323;51.130;6.612;2023-04-19T00:05:55;18.20;65.90
29321;DHT22;16323;51.130;6.612;2023-04-19T00:08:25;18.20;66.00
29321;DHT22;16323;51.130;6.612;2023-04-19T00:10:52;18.20;66.00
29321;DHT22;16323;51.130;6.612;2023-04-19T00:13:18;18.20;65.90
29321;DHT22;16323;51.130;6.612;2023-04-19T00:15:46;18.20;65.70
29321;DHT22;16323;51.130;6.612;2023-04-19T00:18:13;18.20;65.80
29321;DHT22;16323;51.130;6.612;2023-04-19T00:20:40;18.20;65.80
29321;DHT22;16323;51.130;6.612;2023-04-19T00:23:07;18.20;65.60
29321;DHT22;16323;51.130;6.612;2023-04-19T00:25:35;18.20;65.70
29321;DHT22;16323;51.130;6.612;2023-04-19T00:28:03;18.20;65.70
29321;DHT22;16323;51.130;6.612;2023-04-19T00:30:30;18.20;65.60
29321;DHT22;16323;51.130;6.612;2023-04-19T00:32:56;18.20;65.50
29321;DHT22;16323;51.130;6.612;2023-04-19T00:35:23;18.20;65.60
29321;DHT22;16323;51.130;6.612;2023-04-19T00:37:50;18.20;65.80
29321;DHT22;16323;51.130;6.612;2023-04-19T00:40:17;18.20;65.70
29321;DHT22;16323;51.130;6.612;2023-04-19T00:42:45;18.20;65.70
29321;DHT22;16323;51.130;6.612;2023-04-19T00:45:12;18.20;65.60
29321;DHT22;16323;51.130;6.612;2023-04-19T00:47:38;18.20;65.70
29321;DHT22;16323;51.130;6.612;2023-04-19T00:50:06;18.20;65.60
29321;DHT22;16323;51.130;6.612;2023-04-19T00:52:34;18.20;65.80
29321;DHT22;16323;51.130;6.612;2023-04-19T00:55:01;18.20;65.70
29321;DHT22;16323;51.130;6.612;2023-04-19T00:57:29;18.20;65.70
29321;DHT22;16323;51.130;6.612;2023-04-19T00:59:57;18.20;65.70
29321;DHT22;16323;51.130;6.612;2023-04-19T01:02:24;18.20;65.40
29321;DHT22;16323;51.130;6.612;2023-04-19T01:04:52;18.20;66.50
29321;DHT22;16323;51.130;6.612;2023-04-19T01:07:19;18.20;65.40
29321;DHT22;16323;51.130;6.612;2023-04-19T01:09:46;18.20;65.40
29321;DHT22;16323;51.130;6.612;2023-04-19T01:12:13;18.20;65.40
29321;DHT22;16323;51.130;6.612;2023-04-19T01:14:40;18.20;65.30
29321;DHT22;16323;51.130;6.612;2023-04-19T01:17:08;18.20;65.40
29321;DHT22;16323;51.130;6.612;2023-04-19T01:19:35;18.20;65.20
29321;DHT22;16323;51.130;6.612;2023-04-19T01:22:03;18.20;65.30
29321;DHT22;16323;51.130;6.612;2023-04-19T01:24:32;18.20;65.20
29321;DHT22;16323;51.130;6.612;2023-04-19T01:26:59;18.20;65.40
29321;DHT22;16323;51.130;6.612;2023-04-19T01:29:26;18.20;65.40
29321;DHT22;16323;51.130;6.612;2023-04-19T01:31:53;18.20;65.30
29321;DHT22;16323;51.130;6.612;2023-04-19T01:34:20;18.20;65.40
29321;DHT22;16323;51.130;6.612;2023-04-19T01:36:48;18.20;65.20
29321;DHT22;16323;51.130;6.612;2023-04-19T01:39:15;18.20;65.20
29321;DHT22;16323;51.130;6.612;2023-04-19T01:41:43;18.20;65.10
29321;DHT22;16323;51.130;6.612;2023-04-19T01:44:10;18.20;65.10
29321;DHT22;16323;51.130;6.612;2023-04-19T01:46:37;18.20;65.10
29321;DHT22;16323;51.130;6.612;2023-04-19T01:49:07;18.20;65.00
29321;DHT22;16323;51.130;6.612;2023-04-19T01:51:34;18.20;65.00
29321;DHT22;16323;51.130;6.612;2023-04-19T01:54:00;18.20;65.10
29321;DHT22;16323;51.130;6.612;2023-04-19T01:56:27;18.20;65.10
29321;DHT22;16323;51.130;6.612;2023-04-19T01:58:55;18.20;65.00
29321;DHT22;16323;51.130;6.612;2023-04-19T02:01:22;18.20;65.00
29321;DHT22;16323;51.130;6.612;2023-04-19T02:03:49;18.20;65.00
29321;DHT22;16323;51.130;6.612;2023-04-19T02:06:16;18.20;65.00
29321;DHT22;16323;51.130;6.612;2023-04-19T02:08:42;18.20;65.00
29321;DHT22;16323;51.130;6.612;2023-04-19T02:11:10;18.20;65.20
29321;DHT22;16323;51.130;6.612;2023-04-19T02:13:39;18.20;65.10
29321;DHT22;16323;51.130;6.612;2023-04-19T02:16:08;18.20;65.30
29321;DHT22;16323;51.130;6.612;2023-04-19T02:18:36;18.20;65.40
29321;DHT22;16323;51.130;6.612;2023-04-19T02:21:04;18.20;65.30
29321;DHT22;16323;51.130;6.612;2023-04-19T02:23:31;18.20;65.40
29321;DHT22;16323;51.130;6.612;2023-04-19T02:25:59;18.20;65.30
29321;DHT22;16323;51.130;6.612;2023-04-19T02:28:27;18.20;65.20
29321;DHT22;16323;51.130;6.612;2023-04-19T02:30:54;18.20;65.10
29321;DHT22;16323;51.130;6.612;2023-04-19T02:33:24;18.20;65.10
29321;DHT22;16323;51.130;6.612;2023-04-19T02:35:51;18.20;64.90
29321;DHT22;16323;51.130;6.612;2023-04-19T02:38:18;18.20;65.10
29321;DHT22;16323;51.130;6.612;2023-04-19T02:40:44;18.20;65.10
29321;DHT22;16323;51.130;6.612;2023-04-19T02:43:11;18.20;65.00
29321;DHT22;16323;51.130;6.612;2023-04-19T02:45:38;18.20;65.00
29321;DHT22;16323;51.130;6.612;2023-04-19T02:48:05;18.20;66.00
29321;DHT22;16323;51.130;6.612;2023-04-19T02:50:36;18.20;66.00
29321;DHT22;16323;51.130;6.612;2023-04-19T02:53:03;18.20;65.00
29321;DHT22;16323;51.130;6.612;2023-04-19T02:55:29;18.20;65.10
29321;DHT22;16323;51.130;6.612;2023-04-19T02:57:56;18.20;65.00
29321;DHT22;16323;51.130;6.612;2023-04-19T03:00:23;18.20;65.20
29321;DHT22;16323;51.130;6.612;2023-04-19T03:02:50;18.20;65.20
29321;DHT22;16323;51.130;6.612;2023-04-19T03:05:17;18.20;65.40
29321;DHT22;16323;51.130;6.612;2023-04-19T03:07:45;18.20;65.30
29321;DHT22;16323;51.130;6.612;2023-04-19T03:10:11;18.20;65.40
29321;DHT22;16323;51.130;6.612;2023-04-19T03:12:38;18.20;65.30
29321;DHT22;16323;51.130;6.612;2023-04-19T03:15:06;18.20;65.30
29321;DHT22;16323;51.130;6.612;2023-04-19T03:17:33;18.20;65.30
29321;DHT22;16323;51.130;6.612;2023-04-19T03:20:00;18.20;65.20
29321;DHT22;16323;51.130;6.612;2023-04-19T03:22:27;18.20;66.30
29321;DHT22;16323;51.130;6.612;2023-04-19T03:24:55;18.20;65.20
29321;DHT22;16323;51.130;6.612;2023-04-19T03:27:21;18.20;65.20
29321;DHT22;16323;51.130;6.612;2023-04-19T03:29:48;18.20;65.10
29321;DHT22;16323;51.130;6.612;2023-04-19T03:32:15;18.20;65.20
29321;DHT22;16323;51.130;6.612;2023-04-19T03:34:42;18.20;65.10
29321;DHT22;16323;51.130;6.612;2023-04-19T03:37:09;18.20;65.10
29321;DHT22;16323;51.130;6.612;2023-04-19T03:39:35;18.20;65.10
29321;DHT22;16323;51.130;6.612;2023-04-19T03:42:04;18.20;65.10
29321;DHT22;16323;51.130;6.612;2023-04-19T03:44:31;18.20;66.40
29321;DHT22;16323;51.130;6.612;2023-04-19T03:46:58;18.20;65.50
29321;DHT22;16323;51.130;6.612;2023-04-19T03:49:24;18.20;65.50
29321;DHT22;16323;51.130;6.612;2023-04-19T03:51:51;18.20;65.60
29321;DHT22;16323;51.130;6.612;2023-04-19T03:54:18;18.20;65.40
29321;DHT22;16323;51.130;6.612;2023-04-19T03:56:45;18.20;65.40
29321;DHT22;16323;51.130;6.612;2023-04-19T03:59:13;18.20;65.40
29321;DHT22;16323;51.130;6.612;2023-04-19T04:01:40;18.20;65.40
29321;DHT22;16323;51.130;6.612;2023-04-19T04:04:07;18.20;65.30
29321;DHT22;16323;51.130;6.612;2023-04-19T04:06:34;18.20;65.20
29321;DHT22;16323;51.130;6.612;2023-04-19T04:09:01;18.20;65.20
29321;DHT22;16323;51.130;6.612;2023-04-19T04:11:28;18.20;65.00
29321;DHT22;16323;51.130;6.612;2023-04-19T04:13:55;18.20;65.10
29321;DHT22;16323;51.130;6.612;2023-04-19T04:16:23;18.20;64.90
29321;DHT22;16323;51.130;6.612;2023-04-19T04:18:50;18.20;64.90
29321;DHT22;16323;51.130;6.612;2023-04-19T04:21:17;18.20;64.70
29321;DHT22;16323;51.130;6.612;2023-04-19T04:23:44;18.20;64.80
29321;DHT22;16323;51.130;6.612;2023-04-19T04:26:11;18.20;64.80
29321;DHT22;16323;51.130;6.612;2023-04-19T04:28:38;18.20;64.90
29321;DHT22;16323;51.130;6.612;2023-04-19T04:31:05;18.20;65.10
29321;DHT22;16323;51.130;6.612;2023-04-19T04:33:33;18.20;65.20
29321;DHT22;16323;51.130;6.612;2023-04-19T04:36:00;18.20;65.20
29321;DHT22;16323;51.130;6.612;2023-04-19T04:38:27;18.20;65.20
29321;DHT22;16323;51.130;6.612;2023-04-19T04:40:54;18.20;65.10
29321;DHT22;16323;51.130;6.612;2023-04-19T04:43:23;18.20;65.20
29321;DHT22;16323;51.130;6.612;2023-04-19T04:45:50;18.20;65.00
29321;DHT22;16323;51.130;6.612;2023-04-19T04:48:19;18.20;65.00
29321;DHT22;16323;51.130;6.612;2023-04-19T04:50:48;18.20;65.00
29321;DHT22;16323;51.130;6.612;2023-04-19T04:53:15;18.20;64.90
29321;DHT22;16323;51.130;6.612;2023-04-19T04:55:41;18.20;64.90
29321;DHT22;16323;51.130;6.612;2023-04-19T04:58:08;18.20;64.70
29321;DHT22;16323;51.130;6.612;2023-04-19T05:00:35;18.20;64.80
29321;DHT22;16323;51.130;6.612;2023-04-19T05:03:02;18.20;64.80
29321;DHT22;16323;51.130;6.612;2023-04-19T05:05:28;18.20;65.70
29321;DHT22;16323;51.130;6.612;2023-04-19T05:07:57;18.20;64.60
29321;DHT22;16323;51.130;6.612;2023-04-19T05:10:23;18.20;64.90
29321;DHT22;16323;51.130;6.612;2023-04-19T05:12:50;18.20;64.40
29321;DHT22;16323;51.130;6.612;2023-04-19T05:15:17;18.20;64.70
29321;DHT22;16323;51.130;6.612;2023-04-19T05:17:44;18.10;64.60
29321;DHT22;16323;51.130;6.612;2023-04-19T05:20:10;18.20;64.90
29321;DHT22;16323;51.130;6.612;2023-04-19T05:22:38;18.20;65.00
29321;DHT22;16323;51.130;6.612;2023-04-19T05:25:08;18.20;64.90
29321;DHT22;16323;51.130;6.612;2023-04-19T05:27:35;18.20;64.80
29321;DHT22;16323;51.130;6.612;2023-04-19T05:30:02;18.20;64.70
29321;DHT22;16323;51.130;6.612;2023-04-19T05:32:29;18.20;64.90
29321;DHT22;16323;51.130;6.612;2023-04-19T05:34:56;18.20;64.80
29321;DHT22;16323;51.130;6.612;2023-04-19T05:37:23;18.20;64.70
29321;DHT22;16323;51.130;6.612;2023-04-19T05:39:49;18.20;64.60
29321;DHT22;16323;51.130;6.612;2023-04-19T05:42:18;18.20;64.70
29321;DHT22;16323;51.130;6.612;2023-04-19T05:44:45;18.10;64.60
29321;DHT22;16323;51.130;6.612;2023-04-19T05:47:11;18.20;64.60
29321;DHT22;16323;51.130;6.612;2023-04-19T05:49:38;18.20;64.60
29321;DHT22;16323;51.130;6.612;2023-04-19T05:52:05;18.20;64.60
29321;DHT22;16323;51.130;6.612;2023-04-19T05:54:31;18.10;64.10
29321;DHT22;16323;51.130;6.612;2023-04-19T05:57:00;18.10;64.00
29321;DHT22;16323;51.130;6.612;2023-04-19T05:59:28;18.10;64.00
29321;DHT22;16323;51.130;6.612;2023-04-19T06:01:55;18.10;64.00
29321;DHT22;16323;51.130;6.612;2023-04-19T06:04:22;18.10;64.10
29321;DHT22;16323;51.130;6.612;2023-04-19T06:06:49;18.10;63.80
29321;DHT22;16323;51.130;6.612;2023-04-19T06:09:16;18.10;63.10
29321;DHT22;16323;51.130;6.612;2023-04-19T06:11:43;18.10;63.30
29321;DHT22;16323;51.130;6.612;2023-04-19T06:14:10;18.10;63.20
29321;DHT22;16323;51.130;6.612;2023-04-19T06:16:39;18.10;63.00
29321;DHT22;16323;51.130;6.612;2023-04-19T06:19:06;18.10;62.70
29321;DHT22;16323;51.130;6.612;2023-04-19T06:21:33;18.10;62.40
29321;DHT22;16323;51.130;6.612;2023-04-19T06:24:00;18.10;62.40
29321;DHT22;16323;51.130;6.612;2023-04-19T06:26:27;18.00;62.10
29321;DHT22;16323;51.130;6.612;2023-04-19T06:28:53;18.00;62.00
29321;DHT22;16323;51.130;6.612;2023-04-19T06:31:20;18.00;61.90
29321;DHT22;16323;51.130;6.612;2023-04-19T06:33:48;18.00;61.60
29321;DHT22;16323;51.130;6.612;2023-04-19T06:36:15;18.00;61.90
29321;DHT22;16323;51.130;6.612;2023-04-19T06:38:42;18.00;61.70
29321;DHT22;16323;51.130;6.612;2023-04-19T06:41:10;18.00;61.40
29321;DHT22;16323;51.130;6.612;2023-04-19T06:43:37;18.00;60.90
29321;DHT22;16323;51.130;6.612;2023-04-19T06:46:05;18.00;61.00
29321;DHT22;16323;51.130;6.612;2023-04-19T06:48:33;18.10;61.50
29321;DHT22;16323;51.130;6.612;2023-04-19T06:51:01;18.10;61.60
29321;DHT22;16323;51.130;6.612;2023-04-19T06:53:28;18.10;61.90
29321;DHT22;16323;51.130;6.612;2023-04-19T06:55:57;18.10;61.90
29321;DHT22;16323;51.130;6.612;2023-04-19T06:58:25;18.20;61.90
29321;DHT22;16323;51.130;6.612;2023-04-19T07:00:52;18.20;62.00
29321;DHT22;16323;51.130;6.612;2023-04-19T07:03:19;18.20;62.40
29321;DHT22;16323;51.130;6.612;2023-04-19T07:05:46;18.20;62.40
29321;DHT22;16323;51.130;6.612;2023-04-19T07:08:14;18.20;62.40
29321;DHT22;16323;51.130;6.612;2023-04-19T07:10:41;18.20;62.50
29321;DHT22;16323;51.130;6.612;2023-04-19T07:13:09;18.20;62.40
29321;DHT22;16323;51.130;6.612;2023-04-19T07:15:36;18.20;64.00
29321;DHT22;16323;51.130;6.612;2023-04-19T07:18:03;18.30;64.30
29321;DHT22;16323;51.130;6.612;2023-04-19T07:20:29;18.30;64.30
29321;DHT22;16323;51.130;6.612;2023-04-19T07:22:57;18.40;64.20
29321;DHT22;16323;51.130;6.612;2023-04-19T07:25:25;18.40;63.80
29321;DHT22;16323;51.130;6.612;2023-04-19T07:27:52;18.40;63.60
29321;DHT22;16323;51.130;6.612;2023-04-19T07:30:19;18.40;63.80
29321;DHT22;16323;51.130;6.612;2023-04-19T07:32:46;18.40;63.90
29321;DHT22;16323;51.130;6.612;2023-04-19T07:35:15;18.50;63.90
29321;DHT22;16323;51.130;6.612;2023-04-19T07:37:42;18.50;63.90
29321;DHT22;16323;51.130;6.612;2023-04-19T07:40:10;18.50;63.90
29321;DHT22;16323;51.130;6.612;2023-04-19T07:42:38;18.40;63.80
29321;DHT22;16323;51.130;6.612;2023-04-19T07:45:06;18.50;63.80
29321;DHT22;16323;51.130;6.612;2023-04-19T07:47:33;18.50;63.90
29321;DHT22;16323;51.130;6.612;2023-04-19T07:50:00;18.50;63.80
29321;DHT22;16323;51.130;6.612;2023-04-19T07:52:26;18.50;63.80
29321;DHT22;16323;51.130;6.612;2023-04-19T07:54:53;18.50;63.60
29321;DHT22;16323;51.130;6.612;2023-04-19T07:57:21;18.50;63.70
29321;DHT22;16323;51.130;6.612;2023-04-19T07:59:49;18.50;63.80
29321;DHT22;16323;51.130;6.612;2023-04-19T08:02:16;18.50;63.70
29321;DHT22;16323;51.130;6.612;2023-04-19T08:04:44;18.50;63.60
29321;DHT22;16323;51.130;6.612;2023-04-19T08:07:12;18.50;63.40
29321;DHT22;16323;51.130;6.612;2023-04-19T08:09:39;18.50;63.40
29321;DHT22;16323;51.130;6.612;2023-04-19T08:12:06;18.50;63.40
29321;DHT22;16323;51.130;6.612;2023-04-19T08:14:33;18.50;63.30
29321;DHT22;16323;51.130;6.612;2023-04-19T08:17:01;18.50;63.50
29321;DHT22;16323;51.130;6.612;2023-04-19T08:19:29;18.50;63.60
29321;DHT22;16323;51.130;6.612;2023-04-19T08:21:56;18.50;63.60
29321;DHT22;16323;51.130;6.612;2023-04-19T08:24:22;18.50;63.60
29321;DHT22;16323;51.130;6.612;2023-04-19T08:26:49;18.50;63.30
29321;DHT22;16323;51.130;6.612;2023-04-19T08:29:19;18.60;63.20
29321;DHT22;16323;51.130;6.612;2023-04-19T08:31:46;18.60;63.20
29321;DHT22;16323;51.130;6.612;2023-04-19T08:34:14;18.60;63.10
29321;DHT22;16323;51.130;6.612;2023-04-19T08:36:42;18.60;63.00
29321;DHT22;16323;51.130;6.612;2023-04-19T08:39:10;18.60;62.90
29321;DHT22;16323;51.130;6.612;2023-04-19T08:41:39;18.60;62.80
29321;DHT22;16323;51.130;6.612;2023-04-19T08:44:06;18.60;62.80
29321;DHT22;16323;51.130;6.612;2023-04-19T08:46:33;18.60;62.60
29321;DHT22;16323;51.130;6.612;2023-04-19T08:49:00;18.60;62.60
29321;DHT22;16323;51.130;6.612;2023-04-19T08:51:28;18.60;62.40
29321;DHT22;16323;51.130;6.612;2023-04-19T08:53:58;18.60;62.30
29321;DHT22;16323;51.130;6.612;2023-04-19T08:56:25;18.60;62.20
29321;DHT22;16323;51.130;6.612;2023-04-19T08:58:53;18.60;62.20
29321;DHT22;16323;51.130;6.612;2023-04-19T09:01:19;18.60;62.30
29321;DHT22;16323;51.130;6.612;2023-04-19T09:03:46;18.60;62.10
29321;DHT22;16323;51.130;6.612;2023-04-19T09:06:13;18.60;61.90
29321;DHT22;16323;51.130;6.612;2023-04-19T09:08:41;18.60;61.70
29321;DHT22;16323;51.130;6.612;2023-04-19T09:11:08;18.60;61.50
29321;DHT22;16323;51.130;6.612;2023-04-19T09:13:35;18.60;61.50
29321;DHT22;16323;51.130;6.612;2023-04-19T09:16:05;18.60;61.50
29321;DHT22;16323;51.130;6.612;2023-04-19T09:18:32;18.60;61.20
29321;DHT22;16323;51.130;6.612;2023-04-19T09:21:00;18.60;61.20
29321;DHT22;16323;51.130;6.612;2023-04-19T09:23:27;18.60;61.40
29321;DHT22;16323;51.130;6.612;2023-04-19T09:25:56;18.50;61.00
29321;DHT22;16323;51.130;6.612;2023-04-19T09:28:25;18.60;60.80
29321;DHT22;16323;51.130;6.612;2023-04-19T09:30:52;18.60;61.30
29321;DHT22;16323;51.130;6.612;2023-04-19T09:33:38;18.60;61.20
29321;DHT22;16323;51.130;6.612;2023-04-19T09:36:06;18.60;61.40
29321;DHT22;16323;51.130;6.612;2023-04-19T09:38:45;18.50;61.10
29321;DHT22;16323;51.130;6.612;2023-04-19T09:41:13;18.50;62.10
29321;DHT22;16323;51.130;6.612;2023-04-19T09:43:41;18.50;61.00
29321;DHT22;16323;51.130;6.612;2023-04-19T09:46:08;18.50;62.20
29321;DHT22;16323;51.130;6.612;2023-04-19T09:48:35;18.50;61.30
29321;DHT22;16323;51.130;6.612;2023-04-19T09:51:02;18.50;61.50
29321;DHT22;16323;51.130;6.612;2023-04-19T09:53:30;18.50;61.40
29321;DHT22;16323;51.130;6.612;2023-04-19T09:55:58;18.50;61.20
29321;DHT22;16323;51.130;6.612;2023-04-19T09:58:27;18.50;61.30
29321;DHT22;16323;51.130;6.612;2023-04-19T10:00:55;18.50;61.50
29321;DHT22;16323;51.130;6.612;2023-04-19T10:03:24;18.50;61.50
29321;DHT22;16323;51.130;6.612;2023-04-19T10:05:52;18.50;61.50
29321;DHT22;16323;51.130;6.612;2023-04-19T10:08:19;18.50;60.90
29321;DHT22;16323;51.130;6.612;2023-04-19T10:10:45;18.50;60.80
29321;DHT22;16323;51.130;6.612;2023-04-19T10:13:17;18.60;60.80
29321;DHT22;16323;51.130;6.612;2023-04-19T10:15:48;18.60;61.00
29321;DHT22;16323;51.130;6.612;2023-04-19T10:18:15;18.50;61.00
29321;DHT22;16323;51.130;6.612;2023-04-19T10:20:48;18.60;60.80
29321;DHT22;16323;51.130;6.612;2023-04-19T10:23:17;18.50;60.70
29321;DHT22;16323;51.130;6.612;2023-04-19T10:25:45;18.60;60.60
29321;DHT22;16323;51.130;6.612;2023-04-19T10:28:14;18.50;60.50
29321;DHT22;16323;51.130;6.612;2023-04-19T10:30:53;18.50;60.00
29321;DHT22;16323;51.130;6.612;2023-04-19T10:33:24;18.50;60.00
29321;DHT22;16323;51.130;6.612;2023-04-19T10:35:55;18.50;59.60
29321;DHT22;16323;51.130;6.612;2023-04-19T10:38:36;18.60;59.80
29321;DHT22;16323;51.130;6.612;2023-04-19T10:41:03;18.60;59.60
29321;DHT22;16323;51.130;6.612;2023-04-19T10:43:36;18.60;59.60
29321;DHT22;16323;51.130;6.612;2023-04-19T10:46:07;18.60;59.40
29321;DHT22;16323;51.130;6.612;2023-04-19T10:48:37;18.60;59.30
29321;DHT22;16323;51.130;6.612;2023-04-19T10:51:12;18.60;59.40
29321;DHT22;16323;51.130;6.612;2023-04-19T10:53:44;18.60;59.50
29321;DHT22;16323;51.130;6.612;2023-04-19T10:56:11;18.60;59.50
29321;DHT22;16323;51.130;6.612;2023-04-19T10:59:13;18.60;58.50
29321;DHT22;16323;51.130;6.612;2023-04-19T11:01:49;18.60;58.30
29321;DHT22;16323;51.130;6.612;2023-04-19T11:04:17;18.60;58.60
29321;DHT22;16323;51.130;6.612;2023-04-19T11:06:59;18.60;58.50
29321;DHT22;16323;51.130;6.612;2023-04-19T11:09:28;18.60;58.50
29321;DHT22;16323;51.130;6.612;2023-04-19T11:11:58;18.60;58.50
29321;DHT22;16323;51.130;6.612;2023-04-19T11:14:29;18.60;58.00
29321;DHT22;16323;51.130;6.612;2023-04-19T11:16:58;18.60;59.60
29321;DHT22;16323;51.130;6.612;2023-04-19T11:19:25;18.60;59.60
29321;DHT22;16323;51.130;6.612;2023-04-19T11:21:57;18.50;58.50
29321;DHT22;16323;51.130;6.612;2023-04-19T11:24:24;18.50;58.40
29321;DHT22;16323;51.130;6.612;2023-04-19T11:26:51;18.50;58.80
29321;DHT22;16323;51.130;6.612;2023-04-19T11:29:18;18.50;59.60
29321;DHT22;16323;51.130;6.612;2023-04-19T11:31:46;18.50;59.70
29321;DHT22;16323;51.130;6.612;2023-04-19T11:34:14;18.50;60.60
29321;DHT22;16323;51.130;6.612;2023-04-19T11:36:48;18.50;59.90
29321;DHT22;16323;51.130;6.612;2023-04-19T11:39:15;18.50;60.30
29321;DHT22;16323;51.130;6.612;2023-04-19T11:41:42;18.40;60.00
29321;DHT22;16323;51.130;6.612;2023-04-19T11:44:13;18.40;60.40
29321;DHT22;16323;51.130;6.612;2023-04-19T11:46:40;18.40;60.50
29321;DHT22;16323;51.130;6.612;2023-04-19T11:49:07;18.40;60.50
29321;DHT22;16323;51.130;6.612;2023-04-19T11:51:41;18.40;60.80
29321;DHT22;16323;51.130;6.612;2023-04-19T11:54:12;18.30;60.70
29321;DHT22;16323;51.130;6.612;2023-04-19T11:56:56;18.30;60.80
29321;DHT22;16323;51.130;6.612;2023-04-19T11:59:23;18.30;60.80
29321;DHT22;16323;51.130;6.612;2023-04-19T12:01:50;18.30;60.50
29321;DHT22;16323;51.130;6.612;2023-04-19T12:04:17;18.30;60.50
29321;DHT22;16323;51.130;6.612;2023-04-19T12:06:55;18.30;60.80
29321;DHT22;16323;51.130;6.612;2023-04-19T12:09:22;18.30;61.50
29321;DHT22;16323;51.130;6.612;2023-04-19T12:11:49;18.30;62.20
29321;DHT22;16323;51.130;6.612;2023-04-19T12:14:18;18.30;62.20
29321;DHT22;16323;51.130;6.612;2023-04-19T12:17:05;18.30;62.90
29321;DHT22;16323;51.130;6.612;2023-04-19T12:19:34;18.30;62.30
29321;DHT22;16323;51.130;6.612;2023-04-19T12:22:14;18.30;62.70
29321;DHT22;16323;51.130;6.612;2023-04-19T12:24:41;18.30;63.20
29321;DHT22;16323;51.130;6.612;2023-04-19T12:27:08;18.30;63.10
29321;DHT22;16323;51.130;6.612;2023-04-19T12:29:36;18.30;62.90
29321;DHT22;16323;51.130;6.612;2023-04-19T12:32:03;18.30;62.20
29321;DHT22;16323;51.130;6.612;2023-04-19T12:34:30;18.30;61.70
29321;DHT22;16323;51.130;6.612;2023-04-19T12:36:57;18.30;61.80
29321;DHT22;16323;51.130;6.612;2023-04-19T12:39:25;18.30;61.20
29321;DHT22;16323;51.130;6.612;2023-04-19T12:41:53;18.30;61.30
29321;DHT22;16323;51.130;6.612;2023-04-19T12:44:19;18.30;61.90
29321;DHT22;16323;51.130;6.612;2023-04-19T12:46:46;18.30;61.20
29321;DHT22;16323;51.130;6.612;2023-04-19T12:49:13;18.30;62.10
29321;DHT22;16323;51.130;6.612;2023-04-19T12:51:40;18.40;61.40
29321;DHT22;16323;51.130;6.612;2023-04-19T12:54:07;18.40;61.80
29321;DHT22;16323;51.130;6.612;2023-04-19T12:56:36;18.40;62.80
29321;DHT22;16323;51.130;6.612;2023-04-19T12:59:02;18.40;62.90
29321;DHT22;16323;51.130;6.612;2023-04-19T13:01:31;18.40;63.10
29321;DHT22;16323;51.130;6.612;2023-04-19T13:03:57;18.40;63.30
29321;DHT22;16323;51.130;6.612;2023-04-19T13:06:24;18.40;63.40
29321;DHT22;16323;51.130;6.612;2023-04-19T13:08:52;18.40;63.60
29321;DHT22;16323;51.130;6.612;2023-04-19T13:11:18;18.40;63.60
29321;DHT22;16323;51.130;6.612;2023-04-19T13:13:49;18.40;63.50
29321;DHT22;16323;51.130;6.612;2023-04-19T13:16:17;18.40;63.40
29321;DHT22;16323;51.130;6.612;2023-04-19T13:18:44;18.40;63.10
29321;DHT22;16323;51.130;6.612;2023-04-19T13:21:11;18.40;62.60
29321;DHT22;16323;51.130;6.612;2023-04-19T13:23:37;18.40;62.90
29321;DHT22;16323;51.130;6.612;2023-04-19T13:26:05;18.40;63.20
29321;DHT22;16323;51.130;6.612;2023-04-19T13:28:32;18.40;63.40
29321;DHT22;16323;51.130;6.612;2023-04-19T13:31:02;18.30;63.60
29321;DHT22;16323;51.130;6.612;2023-04-19T13:33:29;18.30;63.30
29321;DHT22;16323;51.130;6.612;2023-04-19T13:35:56;18.30;63.80
29321;DHT22;16323;51.130;6.612;2023-04-19T13:38:23;18.30;63.60
29321;DHT22;16323;51.130;6.612;2023-04-19T13:40:50;18.30;64.20
29321;DHT22;16323;51.130;6.612;2023-04-19T13:43:17;18.30;64.30
29321;DHT22;16323;51.130;6.612;2023-04-19T13:45:44;18.40;65.00
29321;DHT22;16323;51.130;6.612;2023-04-19T13:48:12;18.40;65.10
29321;DHT22;16323;51.130;6.612;2023-04-19T13:50:38;18.40;65.60
29321;DHT22;16323;51.130;6.612;2023-04-19T13:53:06;18.40;65.00
29321;DHT22;16323;51.130;6.612;2023-04-19T13:55:33;18.40;65.60
29321;DHT22;16323;51.130;6.612;2023-04-19T13:58:00;18.40;65.50
29321;DHT22;16323;51.130;6.612;2023-04-19T14:00:27;18.40;65.60
29321;DHT22;16323;51.130;6.612;2023-04-19T14:02:54;18.40;65.50
29321;DHT22;16323;51.130;6.612;2023-04-19T14:05:23;18.40;65.30
29321;DHT22;16323;51.130;6.612;2023-04-19T14:07:50;18.40;65.60
29321;DHT22;16323;51.130;6.612;2023-04-19T14:10:17;18.40;65.20
29321;DHT22;16323;51.130;6.612;2023-04-19T14:12:44;18.40;64.60
29321;DHT22;16323;51.130;6.612;2023-04-19T14:15:11;18.40;64.70
29321;DHT22;16323;51.130;6.612;2023-04-19T14:17:38;18.40;64.70
29321;DHT22;16323;51.130;6.612;2023-04-19T14:20:05;18.40;65.20
29321;DHT22;16323;51.130;6.612;2023-04-19T14:22:34;18.40;63.70
29321;DHT22;16323;51.130;6.612;2023-04-19T14:25:01;18.40;64.10
29321;DHT22;16323;51.130;6.612;2023-04-19T14:27:28;18.40;64.60
29321;DHT22;16323;51.130;6.612;2023-04-19T14:29:55;18.40;64.20
29321;DHT22;16323;51.130;6.612;2023-04-19T14:32:22;18.40;64.10
29321;DHT22;16323;51.130;6.612;2023-04-19T14:34:48;18.40;64.10
29321;DHT22;16323;51.130;6.612;2023-04-19T14:37:15;18.40;64.10
29321;DHT22;16323;51.130;6.612;2023-04-19T14:39:45;18.40;64.40
29321;DHT22;16323;51.130;6.612;2023-04-19T14:42:12;18.40;64.20
29321;DHT22;16323;51.130;6.612;2023-04-19T14:44:39;18.40;64.10
29321;DHT22;16323;51.130;6.612;2023-04-19T14:47:06;18.40;64.00
29321;DHT22;16323;51.130;6.612;2023-04-19T14:49:33;18.40;63.80
29321;DHT22;16323;51.130;6.612;2023-04-19T14:52:00;18.40;64.20
29321;DHT22;16323;51.130;6.612;2023-04-19T14:54:28;18.40;63.10
29321;DHT22;16323;51.130;6.612;2023-04-19T14:56:56;18.40;63.50
29321;DHT22;16323;51.130;6.612;2023-04-19T14:59:23;18.40;63.40
29321;DHT22;16323;51.130;6.612;2023-04-19T15:01:50;18.40;63.50
29321;DHT22;16323;51.130;6.612;2023-04-19T15:04:17;18.40;63.60
29321;DHT22;16323;51.130;6.612;2023-04-19T15:06:43;18.40;63.50
29321;DHT22;16323;51.130;6.612;2023-04-19T15:09:10;18.40;63.70
29321;DHT22;16323;51.130;6.612;2023-04-19T15:11:37;18.30;63.50
29321;DHT22;16323;51.130;6.612;2023-04-19T15:14:05;18.40;63.50
29321;DHT22;16323;51.130;6.612;2023-04-19T15:16:32;18.40;63.50
29321;DHT22;16323;51.130;6.612;2023-04-19T15:18:59;18.40;63.60
29321;DHT22;16323;51.130;6.612;2023-04-19T15:21:27;18.40;63.60
29321;DHT22;16323;51.130;6.612;2023-04-19T15:23:54;18.40;63.80
29321;DHT22;16323;51.130;6.612;2023-04-19T15:26:21;18.40;63.90
29321;DHT22;16323;51.130;6.612;2023-04-19T15:28:48;18.40;63.40
29321;DHT22;16323;51.130;6.612;2023-04-19T15:31:16;18.40;63.60
29321;DHT22;16323;51.130;6.612;2023-04-19T15:33:42;18.40;63.60